Dzerzhinsk, Russia
Current Conditions -  °F | °C
As of 9:00 PM on Friday 28 Nov 2014 (Local Time) from UWGG Reporting Station
Overcast Overcast  
Wind Chill: 11°   Ceiling: 700
Heat Index: 19°   Visibility: 4mi
Dew Point: 18°   Wind: 7mph
Humidity: 93%   Direction: 120°ESE
Pressure: 30.68"   Gusts: NA
Location:  56.24°N, 43.46°E
Report Text: UWGG 281800Z 12003MPS 7000 OVC007 M07/M08 Q1039 NOSIG 36450142RMK QFE772
Loading
Personal Weather Stations






























Interactive Weather Map New forecast layout! Learn more

10-Day Weather Forecast

Advertisements
Track Severe Weather on mobile